createdAt,value
2023-01-15T00:03:45.184Z,78.24
2023-01-15T00:08:52.150Z,78.31
2023-01-15T00:13:57.520Z,78.17
2023-01-15T00:19:05.029Z,78.35
2023-01-15T00:24:28.810Z,78.31
2023-01-15T00:29:35.097Z,78.01
2023-01-15T00:34:43.096Z,78.23
2023-01-15T00:39:48.651Z,77.81
2023-01-15T00:44:52.669Z,78.47
2023-01-15T00:49:56.339Z,78.66
2023-01-15T00:55:03.694Z,78.15
2023-01-15T01:00:09.032Z,78.36
2023-01-15T01:05:12.900Z,78.17
2023-01-15T01:10:17.996Z,77.99
2023-01-15T01:15:25.054Z,78.29
2023-01-15T01:20:29.894Z,78.33
2023-01-15T01:25:33.819Z,78.46
2023-01-15T01:30:43.872Z,78.38
2023-01-15T01:35:51.424Z,78.52
2023-01-15T01:40:55.260Z,78.64
2023-01-15T01:46:01.154Z,78.23
2023-01-15T01:51:12.167Z,78.53
2023-01-15T01:56:18.588Z,78.32
2023-01-15T02:01:30.646Z,78.22
2023-01-15T02:06:35.728Z,78.61
2023-01-15T02:11:39.590Z,78.34
2023-01-15T02:16:51.310Z,78.46
2023-01-15T02:22:16.235Z,78.42
2023-01-15T02:27:24.995Z,78.35
2023-01-15T02:32:55.679Z,78.52
2023-01-15T02:38:06.590Z,78.47
2023-01-15T02:43:15.997Z,78.20
2023-01-15T02:48:25.985Z,78.13
2023-01-15T02:53:39.569Z,78.44
2023-01-15T02:58:47.849Z,78.41
2023-01-15T03:04:17.629Z,78.38
2023-01-15T03:09:24.049Z,78.50
2023-01-15T03:14:48.036Z,78.33
2023-01-15T03:20:00.652Z,78.48
2023-01-15T03:25:09.514Z,78.16
2023-01-15T03:30:22.564Z,78.25
2023-01-15T03:35:51.218Z,78.14
2023-01-15T03:41:58.058Z,78.28
2023-01-15T03:47:36.989Z,78.00
2023-01-15T03:52:53.776Z,77.99
2023-01-15T03:58:04.912Z,77.95
2023-01-15T04:03:17.541Z,77.98
2023-01-15T04:08:23.757Z,78.23
2023-01-15T04:13:32.783Z,78.14
2023-01-15T04:18:39.210Z,77.98
2023-01-15T04:23:46.165Z,78.07
2023-01-15T04:28:52.948Z,77.97
2023-01-15T04:33:58.717Z,77.82
2023-01-15T04:39:05.900Z,78.21
2023-01-15T04:44:13.071Z,77.61
2023-01-15T04:49:19.641Z,77.80
2023-01-15T04:54:24.456Z,77.45
2023-01-15T04:59:29.011Z,77.51
2023-01-15T05:04:35.353Z,77.61
2023-01-15T05:09:46.006Z,77.53
2023-01-15T05:14:49.770Z,77.49
2023-01-15T05:19:55.303Z,77.43
2023-01-15T05:24:59.067Z,77.41
2023-01-15T05:30:04.211Z,77.14
2023-01-15T05:35:08.294Z,77.34
2023-01-15T05:40:12.997Z,77.47
2023-01-15T05:45:18.094Z,76.90
2023-01-15T05:50:21.987Z,76.95
2023-01-15T05:55:25.767Z,77.21
2023-01-15T06:00:31.135Z,77.26
2023-01-15T06:05:34.900Z,76.88
2023-01-15T06:10:38.733Z,76.83
2023-01-15T06:15:43.186Z,76.62
2023-01-15T06:20:47.015Z,76.45
2023-01-15T06:25:52.436Z,76.65
2023-01-15T06:30:58.696Z,76.53
2023-01-15T06:36:08.793Z,76.87
2023-01-15T06:41:42.232Z,76.57
2023-01-15T06:47:09.245Z,76.37
2023-01-15T06:52:18.171Z,76.67
2023-01-15T06:57:24.276Z,76.24
2023-01-15T07:02:28.042Z,75.98
2023-01-15T07:07:32.732Z,76.01
2023-01-15T07:12:37.373Z,76.47
2023-01-15T07:17:44.234Z,76.04
2023-01-15T07:22:54.957Z,76.34
2023-01-15T07:27:58.674Z,76.23
2023-01-15T07:33:04.101Z,75.88
2023-01-15T07:38:07.904Z,76.37
2023-01-15T07:43:43.038Z,75.97
2023-01-15T07:49:19.497Z,76.21
2023-01-15T07:54:25.194Z,76.07
2023-01-15T07:59:28.897Z,76.15
2023-01-15T08:04:36.816Z,76.42
2023-01-15T08:09:40.618Z,76.47
2023-01-15T08:15:05.431Z,76.02
2023-01-15T08:20:18.650Z,76.10
2023-01-15T08:25:27.255Z,76.32
2023-01-15T08:30:36.335Z,76.21
2023-01-15T08:35:39.700Z,76.16
2023-01-15T08:40:59.536Z,76.13
2023-01-15T08:46:06.446Z,75.79
2023-01-15T08:51:14.919Z,76.22
2023-01-15T08:56:22.421Z,76.36
2023-01-15T09:01:28.709Z,76.27
2023-01-15T09:06:34.767Z,75.75
2023-01-15T09:11:43.190Z,76.36
2023-01-15T09:16:48.196Z,76.15
2023-01-15T09:21:52.075Z,76.38
2023-01-15T09:26:57.870Z,76.21
2023-01-15T09:32:04.140Z,76.66
2023-01-15T09:37:07.881Z,76.14
2023-01-15T09:42:43.688Z,76.42
2023-01-15T09:48:07.741Z,76.46
2023-01-15T09:53:22.485Z,76.72
2023-01-15T09:58:41.306Z,76.54
2023-01-15T10:03:53.709Z,76.53
2023-01-15T10:09:13.648Z,76.55
2023-01-15T10:14:44.827Z,76.26
2023-01-15T10:19:50.225Z,76.34
2023-01-15T10:25:05.608Z,76.58
2023-01-15T10:30:42.116Z,76.46
2023-01-15T10:36:13.655Z,76.76
2023-01-15T10:41:47.089Z,76.76
2023-01-15T10:47:02.325Z,76.66
2023-01-15T10:52:34.374Z,76.83
2023-01-15T10:58:14.661Z,76.69
2023-01-15T11:03:28.264Z,76.87
2023-01-15T11:09:07.912Z,77.14
2023-01-15T11:14:18.352Z,76.78
2023-01-15T11:19:39.123Z,76.92
2023-01-15T11:24:59.671Z,77.03
2023-01-15T11:30:06.873Z,76.69
2023-01-15T11:35:19.946Z,76.66
2023-01-15T11:40:25.531Z,76.95
2023-01-15T11:45:49.146Z,77.02
2023-01-15T11:51:01.755Z,76.86
2023-01-15T11:56:18.196Z,76.83
2023-01-15T12:01:38.939Z,76.89
2023-01-15T12:06:43.815Z,77.17
2023-01-15T12:12:12.831Z,76.89
2023-01-15T12:17:27.941Z,77.00
2023-01-15T12:23:08.236Z,76.98
2023-01-15T12:28:36.419Z,77.01
2023-01-15T12:34:02.407Z,77.12
2023-01-15T12:39:25.099Z,77.08
2023-01-15T12:45:01.825Z,77.09
2023-01-15T12:50:34.505Z,77.01
2023-01-15T12:56:07.171Z,76.66
2023-01-15T13:01:46.738Z,77.25
2023-01-15T13:07:02.110Z,77.09
2023-01-15T13:12:18.196Z,76.99
2023-01-15T13:18:04.055Z,77.00
2023-01-15T13:23:22.927Z,77.08
2023-01-15T13:28:52.338Z,77.29
2023-01-15T13:33:59.005Z,77.31
2023-01-15T13:39:06.420Z,77.03
2023-01-15T13:44:19.896Z,77.09
2023-01-15T13:49:38.097Z,77.21
2023-01-15T13:54:42.908Z,77.18
2023-01-15T13:59:48.519Z,77.05
2023-01-15T14:04:53.753Z,77.20
2023-01-15T14:10:32.122Z,77.21
2023-01-15T14:15:55.677Z,77.28
2023-01-15T14:21:26.934Z,77.13
2023-01-15T14:26:41.456Z,76.99
2023-01-15T14:32:07.183Z,77.40
2023-01-15T14:37:13.946Z,77.31
2023-01-15T14:42:42.436Z,77.22
2023-01-15T14:47:56.143Z,77.40
2023-01-15T14:53:13.321Z,77.05
2023-01-15T14:58:44.944Z,77.56
2023-01-15T15:04:15.790Z,77.33
2023-01-15T15:09:29.755Z,77.22
2023-01-15T15:14:38.944Z,77.30
2023-01-15T15:19:51.521Z,77.30
2023-01-15T15:24:56.334Z,77.64
2023-01-15T15:30:09.642Z,77.28
2023-01-15T15:35:27.719Z,77.53
2023-01-15T15:40:38.930Z,77.28
2023-01-15T15:46:12.193Z,77.32
2023-01-15T15:51:33.810Z,77.21
2023-01-15T15:56:46.769Z,77.39
2023-01-15T16:01:51.693Z,77.30
2023-01-15T16:06:57.036Z,77.21
2023-01-15T16:12:08.172Z,77.39
2023-01-15T16:17:15.028Z,77.40
2023-01-15T16:22:20.520Z,77.30
2023-01-15T16:27:32.148Z,77.44
2023-01-15T16:32:40.026Z,77.22
2023-01-15T16:37:51.696Z,77.29
2023-01-15T16:43:17.842Z,77.47
2023-01-15T16:48:29.154Z,77.60
2023-01-15T16:53:43.603Z,77.41
2023-01-15T16:58:48.086Z,77.48
2023-01-15T17:03:53.956Z,77.66
2023-01-15T17:08:59.895Z,77.49
2023-01-15T17:14:09.863Z,77.34
2023-01-15T17:19:14.348Z,77.46
2023-01-15T17:24:20.165Z,77.59
2023-01-15T17:29:24.787Z,77.46
2023-01-15T17:34:31.450Z,77.55
2023-01-15T17:39:36.180Z,77.46
2023-01-15T17:44:40.124Z,77.40
2023-01-15T17:49:45.889Z,77.46
2023-01-15T17:55:09.413Z,77.26
2023-01-15T18:00:34.934Z,77.40
2023-01-15T18:05:41.061Z,77.53
2023-01-15T18:10:46.989Z,77.36
2023-01-15T18:15:50.956Z,77.39
2023-01-15T18:20:55.647Z,77.43
2023-01-15T18:26:05.320Z,77.53
2023-01-15T18:31:08.718Z,77.58
2023-01-15T18:36:15.557Z,77.52
2023-01-15T18:41:49.464Z,77.47
2023-01-15T18:47:13.978Z,77.74
2023-01-15T18:52:36.554Z,77.76
2023-01-15T18:57:44.196Z,77.51
2023-01-15T19:02:50.177Z,77.49
2023-01-15T19:07:54.357Z,77.80
2023-01-15T19:12:59.081Z,77.61
2023-01-15T19:18:22.809Z,77.62
2023-01-15T19:23:26.631Z,77.74
2023-01-15T19:28:31.967Z,77.70
2023-01-15T19:33:38.918Z,77.62
2023-01-15T19:38:42.734Z,77.69
2023-01-15T19:44:05.140Z,77.62
2023-01-15T19:49:42.758Z,77.49
2023-01-15T19:55:00.241Z,77.56
2023-01-15T20:00:11.841Z,77.70
2023-01-15T20:05:18.292Z,77.72
2023-01-15T20:10:26.194Z,77.78
2023-01-15T20:15:30.916Z,77.78
2023-01-15T20:20:36.571Z,77.62
2023-01-15T20:25:42.103Z,77.70
2023-01-15T20:30:48.647Z,77.93
2023-01-15T20:35:56.261Z,77.63
2023-01-15T20:41:28.118Z,77.70
2023-01-15T20:46:31.799Z,77.28
2023-01-15T20:51:36.639Z,77.64
2023-01-15T20:56:40.508Z,77.76
2023-01-15T21:01:46.129Z,77.68
2023-01-15T21:06:49.913Z,77.65
2023-01-15T21:11:54.995Z,77.68
2023-01-15T21:17:00.759Z,77.60
2023-01-15T21:22:10.817Z,77.93
2023-01-15T21:27:16.169Z,78.03
2023-01-15T21:32:20.156Z,77.28
2023-01-15T21:37:26.086Z,77.60
2023-01-15T21:42:48.172Z,78.02
2023-01-15T21:47:55.085Z,77.70
2023-01-15T21:53:03.420Z,77.57
2023-01-15T21:58:11.160Z,77.65
2023-01-15T22:03:18.880Z,77.55
2023-01-15T22:08:26.053Z,77.49
2023-01-15T22:13:30.854Z,77.53
2023-01-15T22:18:35.286Z,77.56
2023-01-15T22:23:39.008Z,77.62
2023-01-15T22:28:45.121Z,77.60
2023-01-15T22:33:50.384Z,77.50
2023-01-15T22:38:56.111Z,77.56
2023-01-15T22:44:04.473Z,77.32
2023-01-15T22:49:08.213Z,77.56
2023-01-15T22:54:14.128Z,77.63
2023-01-15T22:59:20.646Z,77.99
2023-01-15T23:04:27.192Z,77.53
2023-01-15T23:09:31.816Z,77.64
2023-01-15T23:14:35.605Z,77.53
2023-01-15T23:19:40.923Z,77.50
2023-01-15T23:24:46.071Z,77.67
2023-01-15T23:29:49.884Z,77.39
2023-01-15T23:34:53.784Z,77.70
2023-01-15T23:39:58.493Z,77.38
2023-01-15T23:45:21.415Z,77.44
2023-01-15T23:50:25.899Z,77.39
2023-01-15T23:55:32.238Z,77.58
